Time;durP1;ratioP1;P1;durP2;ratioP2;P2;SDS_P1;SDS_P2;PMS_P1;PMS_P2;Temp;Humidity;BMP_temperature;BMP_pressure;BME280_temperature;BME280_humidity;BME280_pressure;Samples;Min_cycle;Max_cycle;Signal;HPM_P1;HPM_P2
2021/12/07 00:00:53;;;;;;;24.92;16.77;;;1.50;99.90;;;;;;5093460;28;20473;-64
2021/12/07 00:03:20;;;;;;;23.92;15.35;;;1.50;99.90;;;;;;5093588;28;20036;-64
2021/12/07 00:05:47;;;;;;;25.85;16.42;;;1.50;99.90;;;;;;5093938;28;20039;-64
2021/12/07 00:08:13;;;;;;;22.80;15.50;;;1.50;99.90;;;;;;5093257;28;20271;-64
2021/12/07 00:10:40;;;;;;;20.75;15.35;;;1.50;99.90;;;;;;5093462;28;20040;-64
2021/12/07 00:13:06;;;;;;;22.10;15.60;;;1.60;99.90;;;;;;5073074;28;20071;-65
2021/12/07 00:15:33;;;;;;;22.88;15.57;;;1.50;99.90;;;;;;5073229;28;20044;-65
2021/12/07 00:17:59;;;;;;;20.52;14.57;;;1.50;99.90;;;;;;5072960;28;20413;-65
2021/12/07 00:20:25;;;;;;;23.42;15.32;;;1.50;99.90;;;;;;5073445;28;20151;-64
2021/12/07 00:22:55;;;;;;;24.08;15.93;;;1.50;99.90;;;;;;5092427;28;20044;-64
2021/12/07 00:25:21;;;;;;;21.05;14.00;;;1.50;99.90;;;;;;5093348;28;20468;-65
2021/12/07 00:27:47;;;;;;;20.05;14.07;;;1.50;99.90;;;;;;5093293;28;20051;-64
2021/12/07 00:30:13;;;;;;;19.70;13.65;;;1.50;99.90;;;;;;5093441;28;20036;-65
2021/12/07 00:32:46;;;;;;;19.85;13.48;;;1.50;99.90;;;;;;5092994;28;20337;-66
2021/12/07 00:37:58;;;;;;;17.85;12.85;;;1.50;99.90;;;;;;5092991;28;20040;-65
2021/12/07 00:40:25;;;;;;;17.60;12.18;;;1.50;99.90;;;;;;5093445;28;20081;-65
2021/12/07 00:42:51;;;;;;;14.70;10.70;;;1.50;99.90;;;;;;5093344;28;20059;-65
2021/12/07 00:45:21;;;;;;;15.30;11.05;;;1.50;99.90;;;;;;5093182;28;20036;-66
2021/12/07 00:47:50;;;;;;;18.77;12.43;;;1.50;99.90;;;;;;5092602;28;20044;-65
2021/12/07 00:50:18;;;;;;;14.65;10.95;;;1.40;99.90;;;;;;5093060;28;20040;-65
2021/12/07 00:52:44;;;;;;;15.32;10.55;;;1.40;99.90;;;;;;5093024;28;20044;-65
2021/12/07 00:55:14;;;;;;;15.63;11.05;;;1.50;99.90;;;;;;5093213;28;20044;-67
2021/12/07 00:57:40;;;;;;;14.68;11.13;;;1.50;99.90;;;;;;5095094;28;20036;-66
2021/12/07 01:00:14;;;;;;;15.63;10.90;;;1.50;99.90;;;;;;5096663;28;20092;-65
2021/12/07 01:02:39;;;;;;;16.42;12.07;;;1.40;99.90;;;;;;5096595;28;20079;-66
2021/12/07 01:05:14;;;;;;;16.23;11.23;;;1.40;99.90;;;;;;5096921;28;20445;-65
2021/12/07 01:26:35;;;;;;;13.73;9.80;;;1.50;99.90;;;;;;5096281;28;20043;-66
2021/12/07 01:29:00;;;;;;;14.38;10.98;;;1.60;99.90;;;;;;5096362;28;20380;-66
2021/12/07 01:31:34;;;;;;;14.60;11.40;;;1.50;99.90;;;;;;5095922;28;20078;-66
2021/12/07 01:49:39;;;;;;;13.68;10.45;;;1.60;99.90;;;;;;5061571;28;20050;-66
2021/12/07 02:01:29;;;;;;;12.65;9.18;;;1.60;99.90;;;;;;5095078;28;20364;-66
2021/12/07 02:03:55;;;;;;;13.45;9.25;;;1.60;99.90;;;;;;5095703;28;20024;-66
2021/12/07 02:06:20;;;;;;;12.80;9.55;;;1.60;99.90;;;;;;5095865;28;20746;-66
2021/12/07 02:08:46;;;;;;;12.40;9.30;;;1.70;99.90;;;;;;5094070;28;20106;-67
2021/12/07 02:11:12;;;;;;;12.82;10.05;;;1.70;99.90;;;;;;5095037;28;20047;-67
2021/12/07 02:16:04;;;;;;;14.45;9.15;;;1.70;99.90;;;;;;5095375;28;20066;-67
2021/12/07 02:18:30;;;;;;;11.45;8.52;;;1.80;99.90;;;;;;5094961;28;20044;-67
2021/12/07 02:21:11;;;;;;;11.25;8.30;;;1.80;99.90;;;;;;5095053;28;20239;-67
2021/12/07 02:23:37;;;;;;;11.80;8.55;;;1.80;99.90;;;;;;5095315;28;20043;-67
2021/12/07 02:26:03;;;;;;;12.45;8.70;;;1.90;99.90;;;;;;5094955;28;20044;-66
2021/12/07 02:28:29;;;;;;;12.23;9.07;;;1.90;99.90;;;;;;5094880;28;20079;-66
2021/12/07 02:30:54;;;;;;;11.35;8.45;;;1.80;99.90;;;;;;5094546;28;20380;-67
2021/12/07 02:33:20;;;;;;;11.23;8.05;;;1.90;99.90;;;;;;5095013;28;20051;-66
2021/12/07 02:35:45;;;;;;;11.02;8.13;;;1.90;99.90;;;;;;5095182;28;20048;-67
2021/12/07 02:38:11;;;;;;;12.23;9.07;;;1.90;99.90;;;;;;5094627;28;20536;-68
2021/12/07 02:40:37;;;;;;;11.32;8.13;;;1.80;99.90;;;;;;5094970;28;20032;-68
2021/12/07 02:43:02;;;;;;;11.20;7.90;;;1.90;99.90;;;;;;5094680;28;20101;-68
2021/12/07 02:45:28;;;;;;;13.15;8.50;;;1.80;99.90;;;;;;5094652;28;20044;-67
2021/12/07 02:47:54;;;;;;;12.02;8.88;;;1.80;99.90;;;;;;5094464;28;20051;-68
2021/12/07 02:50:20;;;;;;;10.85;7.93;;;1.70;99.90;;;;;;5094757;28;20036;-67
2021/12/07 02:52:46;;;;;;;12.27;8.60;;;1.70;99.90;;;;;;5094693;28;20040;-68
2021/12/07 02:55:12;;;;;;;9.90;7.68;;;1.80;99.90;;;;;;5094700;28;20090;-69
2021/12/07 02:57:38;;;;;;;12.07;8.48;;;1.80;99.90;;;;;;5094287;28;20416;-67
2021/12/07 03:00:15;;;;;;;10.25;7.78;;;1.80;99.90;;;;;;5094737;28;20035;-67
2021/12/07 03:02:51;;;;;;;10.75;8.50;;;1.80;99.90;;;;;;5094438;28;20101;-67
2021/12/07 03:05:44;;;;;;;9.82;7.32;;;1.80;99.90;;;;;;5094393;28;20104;-67
2021/12/07 03:27:55;;;;;;;11.00;8.65;;;1.60;99.90;;;;;;5093725;28;20462;-66
2021/12/07 03:30:22;;;;;;;11.80;8.85;;;1.60;99.90;;;;;;5094403;28;20075;-66
2021/12/07 03:32:48;;;;;;;12.65;9.30;;;1.60;99.90;;;;;;5093951;28;20031;-66
2021/12/07 03:35:15;;;;;;;11.15;8.30;;;1.60;99.90;;;;;;5093875;28;20048;-66
2021/12/07 03:37:40;;;;;;;11.88;8.68;;;1.60;99.90;;;;;;5093304;28;20035;-66
2021/12/07 03:40:08;;;;;;;11.85;9.18;;;1.60;99.90;;;;;;5094092;28;20048;-66
2021/12/07 03:42:34;;;;;;;11.43;7.72;;;1.50;99.90;;;;;;5093923;28;20062;-67
2021/12/07 03:45:00;;;;;;;11.98;8.52;;;1.50;99.90;;;;;;5093685;28;20611;-66
2021/12/07 03:47:25;;;;;;;12.13;8.75;;;1.50;99.90;;;;;;5093119;28;20104;-66
2021/12/07 03:49:51;;;;;;;14.77;8.48;;;1.50;99.90;;;;;;5094012;28;20047;-66
2021/12/07 03:52:16;;;;;;;11.52;8.85;;;1.60;99.90;;;;;;5093644;28;20039;-66
2021/12/07 03:54:42;;;;;;;15.75;9.00;;;1.60;99.90;;;;;;5093437;28;20486;-68
2021/12/07 03:57:08;;;;;;;12.85;9.13;;;1.60;99.90;;;;;;5093331;28;20044;-68
2021/12/07 03:59:34;;;;;;;13.57;9.02;;;1.60;99.90;;;;;;5093786;28;20058;-67
2021/12/07 04:02:01;;;;;;;13.52;8.77;;;1.60;99.90;;;;;;5093466;28;20090;-66
2021/12/07 04:04:27;;;;;;;15.02;8.98;;;1.70;99.90;;;;;;5093790;28;20048;-66
2021/12/07 04:06:53;;;;;;;14.63;9.30;;;1.70;99.90;;;;;;5093417;28;20044;-66
2021/12/07 04:09:19;;;;;;;14.90;10.13;;;1.60;99.90;;;;;;5093600;28;20040;-66
2021/12/07 04:11:44;;;;;;;14.93;9.82;;;1.60;99.90;;;;;;5093225;28;20063;-65
2021/12/07 04:14:10;;;;;;;13.55;9.70;;;1.60;99.90;;;;;;5093674;28;20109;-66
2021/12/07 04:16:36;;;;;;;13.20;9.52;;;1.60;99.90;;;;;;5093173;28;20055;-65
2021/12/07 04:19:02;;;;;;;15.63;9.55;;;1.50;99.90;;;;;;5093419;28;20036;-66
2021/12/07 04:21:28;;;;;;;15.73;9.25;;;1.60;99.90;;;;;;5093097;28;20032;-65
2021/12/07 04:23:54;;;;;;;12.32;8.98;;;1.60;99.90;;;;;;5093538;28;20040;-66
2021/12/07 04:26:21;;;;;;;12.23;9.18;;;1.60;99.90;;;;;;5093306;28;20040;-67
2021/12/07 04:28:46;;;;;;;13.50;9.20;;;1.60;99.90;;;;;;5093350;28;20071;-66
2021/12/07 04:31:13;;;;;;;14.43;8.82;;;1.60;99.90;;;;;;5093059;28;20047;-66
2021/12/07 04:33:38;;;;;;;12.35;8.57;;;1.70;99.90;;;;;;5097466;28;20088;-66
2021/12/07 04:36:07;;;;;;;13.10;8.35;;;1.70;99.90;;;;;;5097223;28;20044;-65
2021/12/07 04:38:33;;;;;;;12.68;8.23;;;1.80;99.90;;;;;;5097139;28;20036;-66
2021/12/07 04:40:58;;;;;;;11.00;8.20;;;1.90;99.90;;;;;;5097153;28;20043;-65
2021/12/07 04:43:24;;;;;;;14.63;8.57;;;2.00;99.90;;;;;;5097250;28;20036;-66
2021/12/07 04:46:05;;;;;;;14.93;8.65;;;2.00;99.90;;;;;;5097266;28;20044;-66
2021/12/07 04:48:58;;;;;;;11.05;7.72;;;2.00;99.90;;;;;;5096873;28;20059;-66
2021/12/07 04:59:32;;;;;;;12.90;7.93;;;1.90;99.90;;;;;;5097005;28;20064;-66
2021/12/07 05:01:58;;;;;;;13.02;7.60;;;1.90;99.90;;;;;;5096213;28;20440;-66
2021/12/07 05:04:27;;;;;;;13.05;7.57;;;1.90;99.90;;;;;;5096889;28;20056;-66
2021/12/07 05:07:00;;;;;;;13.05;7.50;;;1.80;99.90;;;;;;5096513;28;20325;-66
2021/12/07 05:14:44;;;;;;;14.52;7.95;;;1.80;99.90;;;;;;5076676;28;20059;-67
2021/12/07 05:38:46;;;;;;;14.53;8.13;;;1.90;99.90;;;;;;5075884;28;20058;-66
2021/12/07 05:41:11;;;;;;;15.02;7.78;;;1.90;99.90;;;;;;5078458;28;20271;-67
2021/12/07 05:43:37;;;;;;;14.50;7.88;;;1.90;99.90;;;;;;5096060;28;20050;-66
2021/12/07 05:46:04;;;;;;;17.80;8.20;;;1.90;99.90;;;;;;5096197;28;20040;-66
2021/12/07 05:48:30;;;;;;;14.90;8.48;;;1.80;99.90;;;;;;5095825;28;20071;-66
2021/12/07 05:50:55;;;;;;;14.25;7.95;;;1.80;99.90;;;;;;5088545;28;20074;-66
2021/12/07 05:53:21;;;;;;;14.52;8.02;;;1.70;99.90;;;;;;5096066;28;20342;-68
2021/12/07 05:55:47;;;;;;;13.45;8.00;;;1.70;99.90;;;;;;5089281;28;20040;-66
2021/12/07 05:58:14;;;;;;;17.73;8.88;;;1.70;99.90;;;;;;5074839;28;20737;-67
2021/12/07 06:00:43;;;;;;;16.52;8.75;;;1.70;99.90;;;;;;5074934;28;20049;-66
2021/12/07 06:03:10;;;;;;;17.98;9.10;;;1.60;99.90;;;;;;5077096;28;20039;-66
2021/12/07 06:05:37;;;;;;;14.40;8.18;;;1.60;99.90;;;;;;5074733;28;20059;-68
2021/12/07 06:08:04;;;;;;;15.48;9.32;;;1.60;99.90;;;;;;5074115;28;20494;-66
2021/12/07 06:10:30;;;;;;;15.93;9.30;;;1.60;99.90;;;;;;5075055;28;20040;-66
2021/12/07 06:12:56;;;;;;;19.45;9.73;;;1.60;99.90;;;;;;5089108;28;20074;-66
2021/12/07 06:15:23;;;;;;;14.15;9.43;;;1.60;99.90;;;;;;5074730;28;20071;-67
2021/12/07 06:17:51;;;;;;;16.50;8.60;;;1.50;99.90;;;;;;5074567;28;20446;-66
2021/12/07 06:20:18;;;;;;;18.60;9.82;;;1.50;99.90;;;;;;5074982;28;20132;-65
2021/12/07 06:22:44;;;;;;;14.98;8.98;;;1.50;99.90;;;;;;5089892;28;20461;-69
2021/12/07 06:25:10;;;;;;;17.65;9.98;;;1.60;99.90;;;;;;5093783;28;20070;-66
2021/12/07 06:27:38;;;;;;;17.67;9.40;;;1.60;99.90;;;;;;5074736;28;20047;-66
2021/12/07 06:30:05;;;;;;;17.50;9.65;;;1.60;99.90;;;;;;5075031;28;20047;-66
2021/12/07 06:32:31;;;;;;;18.15;8.90;;;1.60;99.90;;;;;;5087820;28;20036;-65
2021/12/07 06:34:56;;;;;;;16.92;8.25;;;1.60;99.90;;;;;;5076812;28;20097;-66
2021/12/07 06:37:22;;;;;;;16.52;9.07;;;1.60;99.90;;;;;;5074302;28;20037;-67
2021/12/07 06:39:48;;;;;;;16.05;8.60;;;1.60;99.90;;;;;;5074095;28;20040;-65
2021/12/07 06:42:14;;;;;;;16.42;7.78;;;1.60;99.90;;;;;;5085261;28;20060;-67
2021/12/07 06:44:39;;;;;;;14.25;7.85;;;1.60;99.90;;;;;;5094807;28;20042;-66
2021/12/07 06:47:05;;;;;;;14.13;8.38;;;1.60;99.90;;;;;;5094494;28;20054;-67
2021/12/07 06:49:32;;;;;;;13.10;7.50;;;1.60;99.90;;;;;;5094782;28;20036;-66
2021/12/07 06:51:58;;;;;;;13.63;7.63;;;1.60;99.90;;;;;;5076082;28;20054;-63
2021/12/07 06:54:25;;;;;;;14.80;7.57;;;1.60;99.90;;;;;;5073483;28;20409;-65
2021/12/07 06:56:52;;;;;;;13.05;7.15;;;1.70;99.90;;;;;;5074384;28;20036;-65
2021/12/07 06:59:18;;;;;;;16.40;7.93;;;1.60;99.90;;;;;;5074326;28;20028;-66
2021/12/07 07:01:44;;;;;;;15.70;8.65;;;1.60;99.90;;;;;;5076314;28;20515;-65
2021/12/07 07:04:12;;;;;;;19.30;8.68;;;1.60;99.90;;;;;;5074210;28;20036;-64
2021/12/07 07:06:38;;;;;;;14.07;8.30;;;1.60;99.90;;;;;;5073915;28;20044;-65
2021/12/07 07:09:04;;;;;;;16.98;8.80;;;1.60;99.90;;;;;;5073859;28;20055;-66
2021/12/07 07:11:30;;;;;;;16.88;8.55;;;1.60;99.90;;;;;;5078050;28;20146;-66
2021/12/07 07:13:56;;;;;;;16.23;8.57;;;1.60;99.90;;;;;;5094543;28;20118;-66
2021/12/07 07:16:21;;;;;;;18.98;8.20;;;1.70;99.90;;;;;;5093700;28;20040;-66
2021/12/07 07:18:47;;;;;;;17.75;8.48;;;1.70;99.90;;;;;;5094294;28;20074;-68
2021/12/07 07:21:13;;;;;;;19.40;8.98;;;1.70;99.90;;;;;;5093857;28;20036;-66
2021/12/07 07:23:38;;;;;;;18.35;8.68;;;1.80;99.90;;;;;;5094228;28;20115;-67
2021/12/07 07:26:05;;;;;;;18.30;9.02;;;1.80;99.90;;;;;;5093665;28;20040;-67
2021/12/07 07:28:33;;;;;;;19.38;8.23;;;1.80;99.90;;;;;;5094090;28;20108;-67
2021/12/07 07:31:01;;;;;;;22.48;8.38;;;1.80;99.90;;;;;;5093038;28;20070;-67
2021/12/07 07:33:27;;;;;;;17.20;8.80;;;1.90;99.90;;;;;;5093515;28;20054;-68
2021/12/07 07:35:53;;;;;;;18.50;8.07;;;1.90;99.90;;;;;;5094036;28;20036;-68
2021/12/07 07:38:19;;;;;;;21.63;8.25;;;1.90;99.90;;;;;;5093833;28;20047;-67
2021/12/07 07:40:46;;;;;;;17.23;7.80;;;1.90;99.90;;;;;;5093836;28;20603;-67
2021/12/07 07:43:16;;;;;;;15.43;7.57;;;1.80;99.90;;;;;;5093650;28;20039;-68
2021/12/07 07:45:44;;;;;;;16.88;7.93;;;1.80;99.90;;;;;;5083354;28;20045;-68
2021/12/07 07:48:10;;;;;;;22.88;8.63;;;1.80;99.90;;;;;;5073187;28;20427;-68
2021/12/07 07:50:36;;;;;;;20.08;8.00;;;1.80;99.90;;;;;;5072290;28;20044;-69
2021/12/07 07:53:02;;;;;;;18.77;7.65;;;1.80;99.90;;;;;;5080588;28;20039;-67
2021/12/07 07:55:28;;;;;;;19.55;7.57;;;1.70;99.90;;;;;;5073345;28;20044;-68
2021/12/07 07:57:54;;;;;;;20.98;7.50;;;1.70;99.90;;;;;;5073170;28;20029;-68
2021/12/07 08:00:21;;;;;;;19.38;7.38;;;1.70;99.90;;;;;;5073730;28;20115;-69
2021/12/07 08:02:48;;;;;;;20.65;6.97;;;1.70;99.90;;;;;;5088015;28;20040;-68
2021/12/07 08:05:14;;;;;;;15.27;7.03;;;1.80;99.90;;;;;;5093486;28;20119;-68
2021/12/07 08:07:40;;;;;;;18.77;6.88;;;1.80;99.90;;;;;;5095825;28;20134;-69
2021/12/07 08:10:09;;;;;;;16.23;7.15;;;1.80;99.90;;;;;;5086423;28;20052;-69
2021/12/07 08:12:35;;;;;;;18.20;7.63;;;1.90;99.90;;;;;;5081343;28;20044;-68
2021/12/07 08:15:01;;;;;;;22.77;7.93;;;1.90;99.90;;;;;;5077222;28;20044;-68
2021/12/07 08:17:27;;;;;;;19.45;7.57;;;1.90;99.90;;;;;;5076577;28;20127;-68
2021/12/07 08:19:53;;;;;;;21.80;7.88;;;2.00;99.90;;;;;;5077446;28;20123;-68
2021/12/07 08:22:18;;;;;;;18.73;7.07;;;2.00;99.90;;;;;;5087698;28;20354;-69
2021/12/07 08:24:44;;;;;;;17.33;6.57;;;2.00;99.90;;;;;;5091522;28;20043;-69
2021/12/07 08:27:10;;;;;;;16.65;6.97;;;2.00;99.90;;;;;;5076596;28;20040;-68
2021/12/07 08:29:35;;;;;;;26.42;7.55;;;2.00;99.90;;;;;;5077246;28;20056;-68
2021/12/07 08:32:01;;;;;;;20.40;6.55;;;2.10;99.90;;;;;;5081089;28;20047;-68
2021/12/07 08:34:27;;;;;;;19.70;6.00;;;2.10;99.90;;;;;;5077125;28;20056;-68
2021/12/07 08:36:52;;;;;;;16.25;6.25;;;2.20;99.90;;;;;;5076776;28;20076;-68
2021/12/07 08:39:18;;;;;;;21.50;6.78;;;2.30;99.90;;;;;;5077103;28;20445;-68
2021/12/07 08:41:44;;;;;;;15.98;7.43;;;2.20;99.90;;;;;;5082600;28;20036;-68
2021/12/07 08:44:10;;;;;;;17.88;6.20;;;2.30;99.90;;;;;;5093537;28;20046;-69
2021/12/07 08:46:36;;;;;;;17.90;6.00;;;2.30;99.90;;;;;;5076423;28;20110;-70
2021/12/07 08:49:03;;;;;;;15.65;5.88;;;2.40;99.90;;;;;;5076744;28;20041;-69
2021/12/07 08:51:29;;;;;;;21.60;6.00;;;2.30;99.90;;;;;;5080062;28;20036;-70
2021/12/07 08:54:01;;;;;;;14.13;5.10;;;2.40;99.90;;;;;;5097130;28;20051;-70
2021/12/07 09:01:55;;;;;;;17.85;6.32;;;2.50;99.90;;;;;;5083598;28;20051;-70
2021/12/07 09:04:21;;;;;;;16.17;5.82;;;2.50;99.90;;;;;;5096898;28;20028;-71
2021/12/07 09:06:49;;;;;;;15.52;5.65;;;2.60;99.90;;;;;;5096454;28;20039;-71
2021/12/07 09:09:15;;;;;;;16.38;5.50;;;2.60;99.90;;;;;;5081713;28;20123;-71
2021/12/07 09:11:42;;;;;;;17.20;5.07;;;2.70;99.90;;;;;;5081021;28;20127;-71
2021/12/07 09:14:14;;;;;;;16.33;5.65;;;2.80;99.90;;;;;;5096736;28;20055;-70
2021/12/07 09:16:42;;;;;;;15.05;5.18;;;2.80;99.90;;;;;;5096036;28;20062;-71
2021/12/07 09:19:08;;;;;;;11.93;4.80;;;2.90;99.90;;;;;;5095982;28;20054;-72
2021/12/07 09:21:35;;;;;;;14.70;5.32;;;2.90;99.90;;;;;;5096018;28;20039;-71
2021/12/07 09:24:01;;;;;;;19.65;5.38;;;3.00;99.90;;;;;;5096527;28;20059;-71
2021/12/07 09:26:27;;;;;;;13.15;5.30;;;3.00;99.90;;;;;;5096203;28;20059;-71
2021/12/07 09:28:53;;;;;;;14.32;5.45;;;3.00;99.90;;;;;;5096531;28;20036;-73
2021/12/07 09:31:19;;;;;;;12.63;4.85;;;3.00;99.90;;;;;;5094739;28;20124;-72
2021/12/07 09:33:45;;;;;;;14.00;5.78;;;2.90;99.90;;;;;;5096381;28;20177;-73
2021/12/07 09:36:13;;;;;;;17.55;5.38;;;2.90;99.90;;;;;;5075563;28;20082;-71
2021/12/07 09:38:39;;;;;;;13.23;4.93;;;3.00;99.90;;;;;;5075893;28;20036;-71
2021/12/07 09:41:07;;;;;;;13.35;5.38;;;3.00;99.90;;;;;;5075998;28;20043;-71
2021/12/07 09:43:34;;;;;;;11.25;5.10;;;3.10;99.90;;;;;;5095718;28;20051;-71
2021/12/07 09:46:00;;;;;;;14.85;5.55;;;3.10;99.90;;;;;;5094606;28;20079;-71
2021/12/07 09:48:26;;;;;;;16.98;5.22;;;3.10;99.90;;;;;;5095656;28;20605;-71
2021/12/07 09:50:54;;;;;;;15.75;5.10;;;3.20;99.90;;;;;;5095159;28;20040;-71
2021/12/07 09:53:21;;;;;;;14.38;4.65;;;3.20;99.90;;;;;;5095637;28;20051;-71
2021/12/07 09:55:48;;;;;;;14.27;4.25;;;3.30;99.90;;;;;;5094147;28;20127;-71
2021/12/07 09:58:15;;;;;;;20.67;5.18;;;3.40;99.90;;;;;;5095376;28;20162;-70
2021/12/07 10:00:42;;;;;;;12.52;4.32;;;3.40;99.90;;;;;;5095242;28;20465;-72
2021/12/07 10:03:08;;;;;;;16.45;5.13;;;3.50;99.90;;;;;;5093222;28;20040;-70
2021/12/07 10:05:35;;;;;;;14.60;4.80;;;3.50;99.90;;;;;;5095353;28;20051;-71
2021/12/07 10:08:03;;;;;;;12.50;5.00;;;3.60;99.90;;;;;;5095181;28;20051;-71
2021/12/07 10:10:32;;;;;;;12.93;4.40;;;3.70;99.90;;;;;;5095677;28;20043;-70
2021/12/07 10:13:00;;;;;;;15.63;5.00;;;3.80;99.90;;;;;;5094944;28;20131;-70
2021/12/07 10:15:26;;;;;;;11.52;4.63;;;3.80;99.90;;;;;;5087203;28;20109;-70
2021/12/07 10:18:11;;;;;;;12.57;4.03;;;3.90;99.90;;;;;;5074807;28;20128;-70
2021/12/07 10:20:40;;;;;;;;;;;3.90;99.90;;;;;;5075252;28;20036;-71
2021/12/07 10:23:18;;;;;;;16.17;4.30;;;4.00;99.90;;;;;;5089781;28;19920;-72
2021/12/07 10:25:59;;;;;;;13.75;4.43;;;4.10;99.90;;;;;;5094987;28;20044;-71
2021/12/07 10:28:32;;;;;;;13.85;4.40;;;4.10;99.90;;;;;;5095075;28;20032;-70
2021/12/07 10:31:10;;;;;;;14.25;4.18;;;4.20;99.90;;;;;;5094428;28;20054;-71
2021/12/07 10:33:45;;;;;;;16.90;4.00;;;4.30;99.90;;;;;;5094581;28;20116;-72
2021/12/07 10:36:24;;;;;;;14.45;4.30;;;4.30;99.90;;;;;;5094460;28;20499;-71
2021/12/07 10:39:13;;;;;;;16.55;4.60;;;4.40;99.90;;;;;;5095342;28;20107;-71
2021/12/07 10:41:45;;;;;;;14.23;4.90;;;4.50;99.90;;;;;;5094505;28;20047;-71
2021/12/07 10:44:21;;;;;;;14.10;5.05;;;4.60;99.90;;;;;;5094651;28;20342;-72
2021/12/07 10:46:52;;;;;;;14.20;4.65;;;4.70;99.90;;;;;;5094106;28;20466;-71
2021/12/07 10:49:35;;;;;;;13.38;4.75;;;4.80;99.90;;;;;;5095073;28;20063;-70
2021/12/07 10:52:11;;;;;;;12.43;5.32;;;4.80;99.90;;;;;;5094427;28;20036;-70
2021/12/07 10:54:43;;;;;;;14.52;5.43;;;4.90;99.90;;;;;;5094501;28;20066;-70
2021/12/07 10:57:14;;;;;;;14.48;4.72;;;5.00;99.90;;;;;;5094169;28;20040;-70
2021/12/07 10:59:53;;;;;;;13.63;4.47;;;5.00;99.90;;;;;;5094559;28;20111;-70
2021/12/07 11:02:19;;;;;;;11.52;4.60;;;5.10;99.90;;;;;;5094503;28;20047;-70
2021/12/07 11:04:46;;;;;;;11.75;4.00;;;5.10;99.90;;;;;;5094519;28;20185;-70
2021/12/07 11:07:26;;;;;;;9.23;3.63;;;5.20;99.90;;;;;;5093967;28;20040;-70
2021/12/07 11:10:08;;;;;;;16.58;4.68;;;5.20;99.90;;;;;;5093699;28;20096;-69
2021/12/07 11:13:18;;;;;;;14.23;4.35;;;5.20;99.90;;;;;;5094021;28;20075;-70
2021/12/07 11:15:42;;;;;;;13.05;4.07;;;5.30;99.90;;;;;;5089390;28;20063;-71
2021/12/07 11:18:12;;;;;;;13.13;3.92;;;5.30;99.90;;;;;;5094334;28;20533;-71
2021/12/07 11:20:38;;;;;;;13.60;3.90;;;5.40;99.90;;;;;;5093096;28;20058;-70
2021/12/07 11:23:12;;;;;;;14.88;4.28;;;5.40;99.90;;;;;;5091185;28;20046;-70
2021/12/07 11:31:56;;;;;;;13.32;4.50;;;5.30;99.90;;;;;;5093874;28;20048;-70
2021/12/07 11:34:31;;;;;;;16.08;4.10;;;5.40;99.90;;;;;;5031962;28;20042;-70
2021/12/07 11:37:09;;;;;;;12.13;4.43;;;5.40;99.90;;;;;;5031466;28;20470;-69
2021/12/07 11:39:35;;;;;;;11.73;4.13;;;5.40;99.90;;;;;;5050650;28;20136;-70
2021/12/07 11:42:12;;;;;;;11.98;4.20;;;5.40;99.90;;;;;;5080027;28;20040;-70
2021/12/07 11:44:48;;;;;;;12.95;3.53;;;5.50;99.90;;;;;;5087819;28;20123;-70
2021/12/07 11:47:14;;;;;;;8.70;3.70;;;5.50;99.90;;;;;;5093311;28;20350;-70
2021/12/07 11:49:41;;;;;;;11.85;3.90;;;5.60;99.90;;;;;;5093982;28;20047;-70
2021/12/07 11:52:08;;;;;;;11.75;3.88;;;5.50;99.90;;;;;;5093761;28;20040;-67
2021/12/07 11:54:38;;;;;;;12.85;3.97;;;5.50;99.90;;;;;;5073390;28;20036;-70
2021/12/07 11:57:08;;;;;;;16.67;4.63;;;5.60;99.90;;;;;;5072837;28;20044;-69
2021/12/07 11:59:34;;;;;;;8.48;3.90;;;5.50;99.90;;;;;;5072989;28;20036;-70
2021/12/07 12:01:59;;;;;;;17.23;4.13;;;5.50;99.90;;;;;;5074452;28;20031;-72
2021/12/07 12:04:25;;;;;;;11.80;3.58;;;5.60;99.90;;;;;;5072803;28;20441;-69
2021/12/07 12:06:53;;;;;;;16.35;4.07;;;5.60;99.90;;;;;;5072461;28;20335;-70
2021/12/07 12:09:22;;;;;;;13.20;3.78;;;5.60;99.90;;;;;;5072954;28;20040;-70
2021/12/07 12:12:29;;;;;;;13.43;3.83;;;5.60;99.90;;;;;;5074038;28;20064;-70
2021/12/07 12:15:32;;;;;;;11.63;3.67;;;5.60;99.90;;;;;;5072913;28;20108;-69
2021/12/07 12:18:15;;;;;;;14.20;3.92;;;5.60;99.90;;;;;;5072939;28;20044;-69
2021/12/07 12:20:56;;;;;;;16.23;4.82;;;5.60;99.90;;;;;;5072913;28;20415;-70
2021/12/07 12:23:52;;;;;;;14.68;4.25;;;5.60;99.90;;;;;;5074260;28;20119;-69
2021/12/07 12:26:23;;;;;;;12.13;4.32;;;5.60;99.90;;;;;;5072949;28;20115;-71
2021/12/07 12:28:49;;;;;;;12.88;4.28;;;5.60;99.90;;;;;;5091123;28;20114;-72
2021/12/07 12:31:20;;;;;;;10.55;4.20;;;5.60;99.90;;;;;;5074962;28;20111;-72
2021/12/07 12:33:55;;;;;;;14.68;4.60;;;5.60;99.90;;;;;;5075420;28;20032;-70
2021/12/07 12:36:24;;;;;;;17.50;4.60;;;5.60;99.90;;;;;;5072382;28;20359;-70
2021/12/07 12:39:04;;;;;;;14.95;4.85;;;5.60;99.90;;;;;;5072962;28;20047;-72
2021/12/07 12:41:30;;;;;;;15.43;5.40;;;5.60;99.90;;;;;;5089522;28;20036;-70
2021/12/07 12:44:07;;;;;;;12.98;5.35;;;5.50;99.90;;;;;;5074849;28;20377;-71
2021/12/07 12:46:37;;;;;;;12.93;5.35;;;5.50;99.90;;;;;;5089683;28;20381;-70
2021/12/07 12:49:11;;;;;;;12.43;5.50;;;5.50;99.90;;;;;;5092786;28;20036;-71
2021/12/07 12:51:44;;;;;;;16.75;5.40;;;5.40;99.90;;;;;;5092703;28;20040;-71
2021/12/07 12:54:10;;;;;;;14.90;5.90;;;5.40;99.90;;;;;;5075727;28;20072;-70
2021/12/07 12:56:37;;;;;;;15.57;6.75;;;5.40;99.90;;;;;;5076476;28;20047;-70
2021/12/07 12:59:09;;;;;;;14.25;5.78;;;5.30;99.90;;;;;;5075630;28;20044;-70
2021/12/07 13:01:36;;;;;;;14.50;6.82;;;5.30;99.90;;;;;;5078797;28;20066;-70
2021/12/07 13:04:15;;;;;;;15.30;6.35;;;5.20;99.90;;;;;;5097124;28;20144;-71
2021/12/07 13:06:45;;;;;;;16.98;6.78;;;5.20;99.90;;;;;;5096667;28;20069;-70
2021/12/07 13:09:23;;;;;;;14.65;7.10;;;5.20;99.90;;;;;;5091221;28;20130;-70
2021/12/07 13:11:59;;;;;;;20.17;8.30;;;5.10;99.90;;;;;;5080321;28;20054;-70
2021/12/07 13:14:24;;;;;;;17.98;8.05;;;5.10;99.90;;;;;;5080907;28;20075;-69
2021/12/07 13:16:59;;;;;;;19.15;8.63;;;5.10;99.90;;;;;;5075678;28;20377;-69
2021/12/07 13:19:25;;;;;;;15.95;8.77;;;5.00;99.90;;;;;;5075405;28;20063;-70
2021/12/07 13:21:51;;;;;;;25.20;9.77;;;5.00;99.90;;;;;;5079594;28;20362;-70
2021/12/07 13:24:32;;;;;;;20.27;9.68;;;5.00;99.90;;;;;;5096602;28;20111;-70
2021/12/07 13:26:58;;;;;;;18.27;10.00;;;5.00;99.90;;;;;;5096142;28;20088;-70
2021/12/07 13:29:26;;;;;;;22.45;10.30;;;5.00;99.90;;;;;;5096317;28;20048;-70
2021/12/07 13:31:56;;;;;;;19.35;9.98;;;5.00;99.90;;;;;;5096091;28;20036;-71
2021/12/07 13:34:29;;;;;;;23.02;10.82;;;4.90;99.90;;;;;;5092098;28;20032;-70
2021/12/07 13:37:02;;;;;;;23.75;10.90;;;4.90;99.90;;;;;;5075728;28;20136;-70
2021/12/07 13:39:29;;;;;;;24.50;11.25;;;4.90;99.90;;;;;;5075678;28;20457;-70
2021/12/07 13:42:03;;;;;;;25.35;10.57;;;4.80;99.90;;;;;;5062903;28;20086;-70
2021/12/07 13:44:33;;;;;;;21.85;10.82;;;4.80;99.90;;;;;;5095749;28;20433;-70
2021/12/07 13:47:12;;;;;;;16.35;10.23;;;4.80;99.90;;;;;;5095597;28;20091;-70
2021/12/07 13:49:42;;;;;;;21.58;10.70;;;4.70;99.90;;;;;;5095359;28;20043;-70
2021/12/07 13:52:14;;;;;;;23.05;10.98;;;4.80;99.90;;;;;;5087138;28;20126;-70
2021/12/07 13:54:46;;;;;;;25.48;10.07;;;4.70;99.90;;;;;;5089156;28;20037;-70
2021/12/07 13:57:14;;;;;;;22.77;11.57;;;4.80;99.90;;;;;;5075235;28;20406;-70
2021/12/07 13:59:40;;;;;;;22.25;10.55;;;4.80;99.90;;;;;;5088128;28;20479;-70
2021/12/07 14:02:05;;;;;;;19.48;10.05;;;4.70;99.90;;;;;;5095415;28;20054;-71
2021/12/07 14:04:31;;;;;;;26.25;11.73;;;4.70;99.90;;;;;;5094139;28;20036;-70
2021/12/07 14:06:57;;;;;;;24.00;10.50;;;4.70;99.90;;;;;;5082000;28;20036;-72
2021/12/07 14:09:23;;;;;;;23.50;10.82;;;4.70;99.90;;;;;;5075127;28;20446;-71
2021/12/07 14:11:54;;;;;;;21.80;10.38;;;4.70;99.90;;;;;;5078891;28;20048;-71
2021/12/07 14:14:21;;;;;;;24.65;10.80;;;4.60;99.90;;;;;;5095641;28;20044;-71
2021/12/07 14:16:48;;;;;;;19.95;10.57;;;4.70;99.90;;;;;;5095038;28;20346;-71
2021/12/07 14:19:14;;;;;;;24.70;11.25;;;4.60;99.90;;;;;;5095160;28;20184;-71
2021/12/07 14:21:41;;;;;;;23.73;10.18;;;4.60;99.90;;;;;;5095193;28;20041;-70
2021/12/07 14:24:15;;;;;;;20.70;10.07;;;4.60;99.90;;;;;;5091949;28;20037;-70
2021/12/07 14:26:42;;;;;;;26.50;10.60;;;4.50;99.90;;;;;;5074645;28;20366;-70
2021/12/07 14:29:18;;;;;;;23.45;10.10;;;4.50;99.90;;;;;;5074728;28;20570;-71
2021/12/07 14:31:58;;;;;;;20.08;9.95;;;4.50;99.90;;;;;;5077395;28;20185;-71
2021/12/07 14:34:26;;;;;;;25.35;10.55;;;4.40;99.90;;;;;;5095092;28;20373;-71
2021/12/07 14:36:53;;;;;;;22.00;9.32;;;4.40;99.90;;;;;;5094963;28;20338;-71
2021/12/07 14:39:25;;;;;;;26.98;9.98;;;4.40;99.90;;;;;;5095075;28;20143;-70
2021/12/07 14:41:54;;;;;;;20.83;9.57;;;4.30;99.90;;;;;;5095051;28;20592;-71
2021/12/07 14:44:25;;;;;;;19.10;8.98;;;4.30;99.90;;;;;;5094484;28;20540;-70
2021/12/07 14:46:52;;;;;;;22.38;15.32;;;4.30;99.90;;;;;;5094722;28;20365;-70
2021/12/07 14:49:18;;;;;;;29.02;19.50;;;4.30;99.90;;;;;;5094971;28;20051;-71